createdAt,value
2018-06-04T00:03:03.545Z,11.30
2018-06-04T00:07:06.996Z,10.83
2018-06-04T00:11:10.427Z,10.23
2018-06-04T00:15:13.895Z,10.33
2018-06-04T00:19:17.364Z,10.73
2018-06-04T00:23:20.860Z,10.27
2018-06-04T00:27:30.815Z,10.37
2018-06-04T00:31:34.230Z,9.77
2018-06-04T00:35:37.655Z,10.20
2018-06-04T00:39:41.090Z,10.73
2018-06-04T00:43:44.498Z,10.30
2018-06-04T00:47:47.948Z,10.87
2018-06-04T00:51:51.430Z,10.30
2018-06-04T00:56:06.188Z,11.03
2018-06-04T01:00:09.630Z,10.60
2018-06-04T01:04:13.075Z,11.67
2018-06-04T01:08:16.504Z,10.70
2018-06-04T01:12:19.961Z,10.67
2018-06-04T01:16:23.360Z,11.17
2018-06-04T01:20:26.796Z,11.13
2018-06-04T01:24:30.233Z,11.57
2018-06-04T01:28:33.673Z,10.70
2018-06-04T01:32:37.132Z,12.03
2018-06-04T01:36:40.577Z,11.43
2018-06-04T01:40:44.003Z,11.03
2018-06-04T01:44:47.411Z,11.60
2018-06-04T01:48:50.839Z,11.47
2018-06-04T01:52:54.325Z,11.97
2018-06-04T01:56:57.718Z,11.37
2018-06-04T02:01:01.163Z,11.83
2018-06-04T02:05:04.642Z,10.87
2018-06-04T02:09:08.074Z,11.07
2018-06-04T02:13:11.556Z,10.97
2018-06-04T02:17:15.017Z,11.07
2018-06-04T02:21:18.434Z,10.57
2018-06-04T02:25:21.873Z,11.03
2018-06-04T02:29:25.345Z,12.17
2018-06-04T02:33:28.798Z,12.07
2018-06-04T02:37:32.258Z,10.97
2018-06-04T02:41:35.711Z,11.30
2018-06-04T02:45:39.157Z,11.40
2018-06-04T02:49:42.586Z,11.40
2018-06-04T02:53:46.040Z,11.33
2018-06-04T02:57:49.479Z,11.83
2018-06-04T03:01:52.923Z,11.80
2018-06-04T03:05:56.348Z,12.03
2018-06-04T03:09:59.793Z,10.83
2018-06-04T03:14:03.719Z,11.90
2018-06-04T03:18:07.135Z,12.33
2018-06-04T03:22:10.572Z,11.73
2018-06-04T03:26:13.988Z,11.93
2018-06-04T03:30:17.439Z,11.13
2018-06-04T03:34:20.913Z,12.40
2018-06-04T03:38:24.336Z,12.13
2018-06-04T03:42:28.646Z,11.63
2018-06-04T03:46:32.098Z,12.10
2018-06-04T03:50:35.562Z,12.27
2018-06-04T03:54:38.999Z,12.87
2018-06-04T03:58:42.457Z,12.90
2018-06-04T04:02:45.910Z,12.50
2018-06-04T04:06:49.312Z,12.93
2018-06-04T04:10:52.792Z,13.83
2018-06-04T04:14:56.227Z,13.40
2018-06-04T04:18:59.726Z,12.73
2018-06-04T04:23:03.152Z,12.43
2018-06-04T04:27:06.614Z,15.40
2018-06-04T04:31:10.036Z,15.73
2018-06-04T04:35:13.495Z,15.70
2018-06-04T04:39:16.959Z,16.23
2018-06-04T04:43:20.435Z,15.57
2018-06-04T04:47:23.851Z,17.00
2018-06-04T04:51:27.306Z,17.93
2018-06-04T04:55:30.749Z,17.67
2018-06-04T04:59:34.210Z,17.47
2018-06-04T05:03:37.646Z,18.63
2018-06-04T05:07:41.108Z,19.77
2018-06-04T05:11:44.566Z,19.57
2018-06-04T05:15:48.008Z,19.63
2018-06-04T05:19:51.488Z,18.97
2018-06-04T05:23:54.950Z,19.23
2018-06-04T05:27:58.355Z,18.90
2018-06-04T05:32:01.798Z,18.47
2018-06-04T05:36:05.298Z,18.03
2018-06-04T05:40:08.759Z,19.05
2018-06-04T05:44:12.187Z,17.87
2018-06-04T05:48:15.622Z,18.27
2018-06-04T05:52:19.025Z,17.10
2018-06-04T05:56:22.471Z,17.92
2018-06-04T06:00:25.878Z,15.85
2018-06-04T06:04:29.325Z,15.18
2018-06-04T06:08:32.747Z,16.60
2018-06-04T06:12:36.205Z,14.80
2018-06-04T06:16:39.676Z,15.13
2018-06-04T06:20:43.113Z,13.55
2018-06-04T06:24:46.517Z,14.38
2018-06-04T06:28:49.956Z,14.07
2018-06-04T06:32:53.390Z,14.65
2018-06-04T06:36:56.833Z,13.40
2018-06-04T06:41:00.281Z,13.43
2018-06-04T06:45:03.750Z,15.40
2018-06-04T06:49:07.204Z,15.05
2018-06-04T06:53:10.603Z,13.93
2018-06-04T06:57:14.131Z,13.08
2018-06-04T07:01:17.587Z,12.10
2018-06-04T07:05:21.051Z,12.28
2018-06-04T07:09:24.472Z,14.10
2018-06-04T07:13:27.907Z,12.15
2018-06-04T07:17:31.363Z,12.73
2018-06-04T07:21:34.817Z,10.48
2018-06-04T07:25:38.272Z,9.63
2018-06-04T07:29:41.666Z,9.68
2018-06-04T07:33:45.091Z,9.60
2018-06-04T07:37:48.519Z,9.25
2018-06-04T07:41:51.950Z,9.08
2018-06-04T07:45:55.375Z,9.23
2018-06-04T07:49:58.893Z,10.58
2018-06-04T07:54:02.272Z,9.83
2018-06-04T07:58:05.726Z,9.73
2018-06-04T08:02:09.131Z,10.38
2018-06-04T08:06:12.678Z,9.90
2018-06-04T08:10:16.126Z,9.70
2018-06-04T08:14:19.514Z,9.43
2018-06-04T08:18:22.962Z,10.13
2018-06-04T08:22:26.383Z,12.23
2018-06-04T08:26:29.839Z,10.18
2018-06-04T08:30:33.314Z,9.43
2018-06-04T08:34:36.711Z,9.38
2018-06-04T08:38:40.202Z,9.98
2018-06-04T08:42:43.637Z,9.38
2018-06-04T08:46:47.043Z,9.45
2018-06-04T08:50:50.485Z,11.45
2018-06-04T08:54:53.938Z,8.70
2018-06-04T08:58:57.355Z,9.10
2018-06-04T09:03:00.792Z,9.15
2018-06-04T09:07:04.207Z,9.38
2018-06-04T09:11:07.734Z,8.80
2018-06-04T09:15:11.168Z,8.43
2018-06-04T09:19:14.609Z,8.48
2018-06-04T09:23:18.049Z,9.05
2018-06-04T09:27:21.493Z,9.30
2018-06-04T09:31:24.936Z,8.93
2018-06-04T09:35:28.370Z,7.90
2018-06-04T09:39:31.796Z,7.20
2018-06-04T09:43:35.198Z,8.93
2018-06-04T09:47:38.659Z,7.30
2018-06-04T09:51:42.068Z,7.33
2018-06-04T09:55:45.499Z,9.55
2018-06-04T09:59:48.893Z,7.20
2018-06-04T10:03:52.304Z,6.70
2018-06-04T10:07:55.726Z,6.95
2018-06-04T10:11:59.172Z,7.03
2018-06-04T10:16:02.617Z,6.70
2018-06-04T10:20:06.048Z,6.70
2018-06-04T10:24:09.604Z,6.95
2018-06-04T10:28:13.059Z,6.35
2018-06-04T10:32:16.499Z,6.55
2018-06-04T10:36:19.923Z,6.95
2018-06-04T10:40:23.360Z,7.47
2018-06-04T10:44:26.782Z,9.08
2018-06-04T10:48:30.180Z,6.67
2018-06-04T10:52:33.603Z,6.95
2018-06-04T10:56:37.031Z,7.33
2018-06-04T11:00:40.464Z,7.62
2018-06-04T11:04:43.895Z,7.17
2018-06-04T11:08:47.319Z,6.92
2018-06-04T11:12:50.760Z,6.80
2018-06-04T11:16:54.190Z,8.23
2018-06-04T11:20:57.624Z,6.60
2018-06-04T11:25:01.052Z,6.87
2018-06-04T11:29:04.822Z,6.08
2018-06-04T11:33:08.253Z,6.85
2018-06-04T11:37:11.691Z,6.75
2018-06-04T11:41:15.116Z,6.87
2018-06-04T11:45:18.563Z,6.67
2018-06-04T11:49:22.003Z,6.33
2018-06-04T11:53:25.428Z,6.60
2018-06-04T11:57:28.877Z,5.92
2018-06-04T12:01:32.320Z,6.10
2018-06-04T12:05:35.743Z,6.00
2018-06-04T12:09:39.160Z,6.25
2018-06-04T12:13:42.608Z,6.08
2018-06-04T12:17:47.024Z,6.47
2018-06-04T12:21:50.483Z,7.78
2018-06-04T12:25:53.910Z,6.95
2018-06-04T12:29:57.359Z,6.05
2018-06-04T12:34:00.793Z,6.37
2018-06-04T12:38:04.234Z,6.55
2018-06-04T12:42:07.654Z,7.28
2018-06-04T12:46:12.190Z,6.37
2018-06-04T12:50:15.627Z,6.17
2018-06-04T12:54:19.030Z,7.35
2018-06-04T12:58:22.462Z,6.55
2018-06-04T13:02:25.878Z,6.25
2018-06-04T13:06:29.286Z,6.08
2018-06-04T13:10:32.783Z,6.20
2018-06-04T13:14:36.188Z,8.08
2018-06-04T13:18:39.621Z,6.20
2018-06-04T13:22:43.039Z,6.33
2018-06-04T13:26:46.479Z,6.12
2018-06-04T13:30:49.931Z,6.17
2018-06-04T13:34:53.351Z,7.22
2018-06-04T13:38:56.787Z,7.15
2018-06-04T13:43:00.209Z,6.97
2018-06-04T13:47:03.644Z,5.87
2018-06-04T13:51:07.089Z,8.85
2018-06-04T13:55:10.534Z,7.95
2018-06-04T13:59:13.987Z,6.70
2018-06-04T14:03:17.390Z,7.67
2018-06-04T14:07:20.810Z,6.28
2018-06-04T14:11:24.288Z,6.70
2018-06-04T14:15:27.689Z,6.20
2018-06-04T14:19:31.134Z,7.35
2018-06-04T14:23:34.538Z,8.65
2018-06-04T14:27:37.987Z,7.37
2018-06-04T14:31:41.423Z,8.73
2018-06-04T14:35:44.851Z,7.83
2018-06-04T14:39:48.325Z,7.45
2018-06-04T14:43:51.766Z,9.03
2018-06-04T14:47:55.187Z,7.85
2018-06-04T14:51:58.635Z,8.30
2018-06-04T14:56:02.104Z,8.18
2018-06-04T15:00:05.596Z,10.25
2018-06-04T15:04:09.023Z,7.87
2018-06-04T15:08:12.426Z,7.80
2018-06-04T15:12:15.833Z,7.40
2018-06-04T15:16:19.282Z,7.83
2018-06-04T15:20:22.795Z,8.23
2018-06-04T15:24:26.179Z,7.30
2018-06-04T15:28:29.610Z,7.72
2018-06-04T15:32:33.060Z,9.45
2018-06-04T15:36:36.496Z,9.48
2018-06-04T15:40:39.950Z,8.98
2018-06-04T15:44:43.342Z,8.28
2018-06-04T15:48:46.780Z,9.15
2018-06-04T15:52:50.206Z,7.10
2018-06-04T15:56:53.636Z,8.20
2018-06-04T16:00:58.219Z,7.30
2018-06-04T16:05:01.643Z,9.30
2018-06-04T16:09:07.207Z,6.40
2018-06-04T16:13:10.634Z,8.48
2018-06-04T16:17:14.061Z,7.22
2018-06-04T16:21:17.515Z,7.53
2018-06-04T16:25:20.938Z,7.28
2018-06-04T16:29:24.397Z,7.37
2018-06-04T16:33:27.850Z,8.53
2018-06-04T16:37:31.383Z,9.95
2018-06-04T16:41:34.723Z,7.40
2018-06-04T16:45:38.146Z,6.92
2018-06-04T16:49:41.559Z,8.23
2018-06-04T16:53:44.966Z,6.72
2018-06-04T16:57:48.386Z,7.22
2018-06-04T17:01:51.903Z,6.90
2018-06-04T17:05:55.339Z,7.80
2018-06-04T17:09:58.742Z,6.80
2018-06-04T17:14:02.187Z,6.90
2018-06-04T17:18:05.583Z,7.22
2018-06-04T17:22:09.007Z,7.62
2018-06-04T17:26:12.394Z,7.30
2018-06-04T17:30:15.816Z,6.58
2018-06-04T17:34:19.229Z,7.50
2018-06-04T17:38:22.632Z,6.78
2018-06-04T17:42:26.077Z,7.08
2018-06-04T17:46:29.530Z,7.03
2018-06-04T17:50:32.971Z,7.45
2018-06-04T17:54:36.440Z,7.22
2018-06-04T17:58:39.854Z,6.83
2018-06-04T18:02:43.297Z,8.08
2018-06-04T18:06:46.784Z,7.10
2018-06-04T18:10:50.197Z,7.58
2018-06-04T18:14:53.634Z,8.08
2018-06-04T18:18:57.061Z,6.95
2018-06-04T18:23:00.528Z,7.85
2018-06-04T18:27:03.933Z,7.58
2018-06-04T18:31:07.770Z,7.72
2018-06-04T18:35:11.192Z,8.70
2018-06-04T18:39:14.639Z,7.20
2018-06-04T18:43:18.094Z,7.50
2018-06-04T18:47:21.502Z,8.03
2018-06-04T18:51:24.931Z,7.97
2018-06-04T18:55:28.359Z,8.10
2018-06-04T18:59:31.857Z,7.97
2018-06-04T19:03:35.290Z,8.10
2018-06-04T19:07:38.698Z,8.43
2018-06-04T19:11:42.144Z,7.87
2018-06-04T19:15:45.571Z,7.83
2018-06-04T19:19:48.986Z,8.33
2018-06-04T19:23:52.530Z,8.25
2018-06-04T19:27:56.000Z,9.75
2018-06-04T19:31:59.493Z,11.53
2018-06-04T19:36:02.863Z,8.90
2018-06-04T19:40:06.299Z,10.50
2018-06-04T19:44:09.804Z,9.88
2018-06-04T19:48:13.261Z,9.25
2018-06-04T19:52:16.671Z,9.23
2018-06-04T19:56:20.120Z,9.53
2018-06-04T20:00:23.565Z,13.50
2018-06-04T20:04:27.299Z,8.75
2018-06-04T20:08:30.746Z,9.93
2018-06-04T20:12:34.195Z,10.58
2018-06-04T20:16:37.618Z,9.65
2018-06-04T20:20:41.064Z,9.68
2018-06-04T20:24:44.500Z,9.50
2018-06-04T20:28:47.939Z,9.68
2018-06-04T20:32:51.348Z,9.43
2018-06-04T20:36:54.791Z,9.90
2018-06-04T20:40:58.193Z,9.78
2018-06-04T20:45:01.649Z,12.40
2018-06-04T20:49:05.109Z,10.68
2018-06-04T20:53:08.491Z,13.43
2018-06-04T20:57:11.905Z,13.48
2018-06-04T21:01:15.334Z,9.33
2018-06-04T21:05:18.763Z,10.30
2018-06-04T21:09:22.222Z,10.08
2018-06-04T21:13:25.654Z,10.55
2018-06-04T21:17:29.082Z,12.50
2018-06-04T21:21:32.522Z,11.83
2018-06-04T21:25:35.972Z,10.82
2018-06-04T21:29:39.409Z,11.38
2018-06-04T21:33:42.850Z,13.43
2018-06-04T21:37:46.299Z,10.32
2018-06-04T21:41:49.701Z,11.00
2018-06-04T21:45:53.178Z,9.10
2018-06-04T21:49:56.595Z,10.93
2018-06-04T21:54:00.020Z,11.08
2018-06-04T21:58:03.429Z,10.32
2018-06-04T22:02:06.911Z,9.30
2018-06-04T22:06:11.370Z,11.45
2018-06-04T22:10:14.812Z,11.33
2018-06-04T22:14:18.257Z,9.63
2018-06-04T22:18:21.661Z,10.70
2018-06-04T22:22:25.086Z,12.57
2018-06-04T22:26:28.524Z,10.53
2018-06-04T22:30:31.942Z,10.63
2018-06-04T22:34:35.403Z,10.77
2018-06-04T22:38:38.854Z,10.70
2018-06-04T22:42:42.287Z,11.57
2018-06-04T22:46:45.729Z,13.00
2018-06-04T22:50:49.168Z,11.83
2018-06-04T22:54:52.642Z,10.97
2018-06-04T22:58:56.017Z,10.63
2018-06-04T23:02:59.457Z,11.83
2018-06-04T23:07:02.848Z,12.47
2018-06-04T23:11:06.371Z,11.07
2018-06-04T23:15:09.787Z,11.40
2018-06-04T23:19:13.228Z,11.47
2018-06-04T23:23:16.691Z,11.67
2018-06-04T23:27:20.159Z,10.90
2018-06-04T23:31:23.605Z,11.80
2018-06-04T23:35:27.094Z,12.90
2018-06-04T23:39:30.498Z,11.50
2018-06-04T23:43:33.930Z,11.60
2018-06-04T23:47:37.387Z,11.43
2018-06-04T23:51:40.828Z,12.03
2018-06-04T23:55:44.281Z,12.00
2018-06-04T23:59:47.713Z,12.73
